sensor_id;sensor_type;location;lat;lon;timestamp;temperature;humidity
73955;DHT22;62306;52.516;13.290;2024-01-07T00:02:22;-0.50;99.90
73955;DHT22;62306;52.516;13.290;2024-01-07T00:04:49;-0.30;99.90
73955;DHT22;62306;52.516;13.290;2024-01-07T00:07:15;-0.30;99.90
73955;DHT22;62306;52.516;13.290;2024-01-07T00:09:42;-0.30;99.90
73955;DHT22;62306;52.516;13.290;2024-01-07T00:12:09;-0.30;99.90
73955;DHT22;62306;52.516;13.290;2024-01-07T00:14:36;-0.40;99.90
73955;DHT22;62306;52.516;13.290;2024-01-07T00:17:03;-0.40;99.90
73955;DHT22;62306;52.516;13.290;2024-01-07T00:19:31;-0.40;99.90
73955;DHT22;62306;52.516;13.290;2024-01-07T00:22:01;-0.50;99.90
73955;DHT22;62306;52.516;13.290;2024-01-07T00:24:27;-0.50;99.90
73955;DHT22;62306;52.516;13.290;2024-01-07T00:26:54;-0.60;99.90
73955;DHT22;62306;52.516;13.290;2024-01-07T00:29:21;-0.60;99.90
73955;DHT22;62306;52.516;13.290;2024-01-07T00:31:48;-0.60;99.90
73955;DHT22;62306;52.516;13.290;2024-01-07T00:34:15;-0.70;99.90
73955;DHT22;62306;52.516;13.290;2024-01-07T00:36:43;-0.70;99.90
73955;DHT22;62306;52.516;13.290;2024-01-07T00:39:10;-0.70;99.90
73955;DHT22;62306;52.516;13.290;2024-01-07T00:41:37;-0.70;99.90
73955;DHT22;62306;52.516;13.290;2024-01-07T00:44:04;-0.80;99.90
73955;DHT22;62306;52.516;13.290;2024-01-07T00:46:31;-0.80;99.90
73955;DHT22;62306;52.516;13.290;2024-01-07T00:48:57;-0.70;99.90
73955;DHT22;62306;52.516;13.290;2024-01-07T00:51:24;-0.70;99.90
73955;DHT22;62306;52.516;13.290;2024-01-07T00:53:52;-0.70;99.90
73955;DHT22;62306;52.516;13.290;2024-01-07T00:56:19;-0.70;99.90
73955;DHT22;62306;52.516;13.290;2024-01-07T00:58:46;-0.70;99.90
73955;DHT22;62306;52.516;13.290;2024-01-07T01:01:13;-0.70;99.90
73955;DHT22;62306;52.516;13.290;2024-01-07T01:03:40;-0.70;99.90
73955;DHT22;62306;52.516;13.290;2024-01-07T01:06:06;-0.80;99.90
73955;DHT22;62306;52.516;13.290;2024-01-07T01:08:33;-0.80;99.90
73955;DHT22;62306;52.516;13.290;2024-01-07T01:11:02;-0.80;99.90
73955;DHT22;62306;52.516;13.290;2024-01-07T01:13:28;-0.80;99.90
73955;DHT22;62306;52.516;13.290;2024-01-07T01:15:55;-0.80;99.90
73955;DHT22;62306;52.516;13.290;2024-01-07T01:18:22;-0.80;99.90
73955;DHT22;62306;52.516;13.290;2024-01-07T01:20:49;-0.80;99.90
73955;DHT22;62306;52.516;13.290;2024-01-07T01:23:16;-0.80;99.90
73955;DHT22;62306;52.516;13.290;2024-01-07T01:25:43;-0.80;99.90
73955;DHT22;62306;52.516;13.290;2024-01-07T01:28:11;-0.90;99.90
73955;DHT22;62306;52.516;13.290;2024-01-07T01:30:38;-0.90;99.90
73955;DHT22;62306;52.516;13.290;2024-01-07T01:33:06;-0.90;99.90
73955;DHT22;62306;52.516;13.290;2024-01-07T01:35:33;-1.00;99.90
73955;DHT22;62306;52.516;13.290;2024-01-07T01:38:00;-1.00;99.90
73955;DHT22;62306;52.516;13.290;2024-01-07T01:40:27;-1.10;99.90
73955;DHT22;62306;52.516;13.290;2024-01-07T01:42:54;-1.10;99.90
73955;DHT22;62306;52.516;13.290;2024-01-07T01:45:22;-1.10;99.90
73955;DHT22;62306;52.516;13.290;2024-01-07T01:47:49;-1.20;99.90
73955;DHT22;62306;52.516;13.290;2024-01-07T01:50:16;-1.10;99.90
73955;DHT22;62306;52.516;13.290;2024-01-07T01:52:44;-1.20;99.90
73955;DHT22;62306;52.516;13.290;2024-01-07T01:55:12;-1.20;99.90
73955;DHT22;62306;52.516;13.290;2024-01-07T01:57:39;-1.10;99.90
73955;DHT22;62306;52.516;13.290;2024-01-07T02:00:07;-1.10;99.90
73955;DHT22;62306;52.516;13.290;2024-01-07T02:02:36;-1.20;99.90
73955;DHT22;62306;52.516;13.290;2024-01-07T02:05:03;-1.20;99.90
73955;DHT22;62306;52.516;13.290;2024-01-07T02:07:31;-1.20;99.90
73955;DHT22;62306;52.516;13.290;2024-01-07T02:09:58;-1.30;99.90
73955;DHT22;62306;52.516;13.290;2024-01-07T02:12:25;-1.30;99.90
73955;DHT22;62306;52.516;13.290;2024-01-07T02:14:52;-1.40;99.90
73955;DHT22;62306;52.516;13.290;2024-01-07T02:17:20;-1.40;99.90
73955;DHT22;62306;52.516;13.290;2024-01-07T02:19:48;-1.30;99.90
73955;DHT22;62306;52.516;13.290;2024-01-07T02:22:15;-1.40;99.90
73955;DHT22;62306;52.516;13.290;2024-01-07T02:24:43;-1.40;99.90
73955;DHT22;62306;52.516;13.290;2024-01-07T02:27:10;-1.50;99.90
73955;DHT22;62306;52.516;13.290;2024-01-07T02:29:37;-1.50;99.90
73955;DHT22;62306;52.516;13.290;2024-01-07T02:32:05;-1.50;99.90
73955;DHT22;62306;52.516;13.290;2024-01-07T02:34:32;-1.50;99.90
73955;DHT22;62306;52.516;13.290;2024-01-07T02:36:59;-1.50;99.90
73955;DHT22;62306;52.516;13.290;2024-01-07T02:39:25;-1.50;99.90
73955;DHT22;62306;52.516;13.290;2024-01-07T02:41:54;-1.60;99.90
73955;DHT22;62306;52.516;13.290;2024-01-07T02:44:20;-1.60;99.90
73955;DHT22;62306;52.516;13.290;2024-01-07T02:46:47;-1.60;99.90
73955;DHT22;62306;52.516;13.290;2024-01-07T02:49:14;-1.70;99.90
73955;DHT22;62306;52.516;13.290;2024-01-07T02:51:41;-1.80;99.90
73955;DHT22;62306;52.516;13.290;2024-01-07T02:54:08;-1.70;99.90
73955;DHT22;62306;52.516;13.290;2024-01-07T02:56:35;-1.80;99.90
73955;DHT22;62306;52.516;13.290;2024-01-07T02:59:03;-1.80;99.90
73955;DHT22;62306;52.516;13.290;2024-01-07T03:01:30;-1.80;99.90
73955;DHT22;62306;52.516;13.290;2024-01-07T03:03:57;-1.80;99.90
73955;DHT22;62306;52.516;13.290;2024-01-07T03:06:26;-1.80;99.90
73955;DHT22;62306;52.516;13.290;2024-01-07T03:08:53;-1.90;99.90
73955;DHT22;62306;52.516;13.290;2024-01-07T03:11:20;-1.90;99.90
73955;DHT22;62306;52.516;13.290;2024-01-07T03:13:47;-1.90;99.90
73955;DHT22;62306;52.516;13.290;2024-01-07T03:16:20;-1.90;99.90
73955;DHT22;62306;52.516;13.290;2024-01-07T03:18:47;-1.90;99.90
73955;DHT22;62306;52.516;13.290;2024-01-07T03:21:18;-1.90;99.90
73955;DHT22;62306;52.516;13.290;2024-01-07T03:23:45;-1.90;99.90
73955;DHT22;62306;52.516;13.290;2024-01-07T03:26:13;-1.90;99.90
73955;DHT22;62306;52.516;13.290;2024-01-07T03:28:40;-2.00;99.90
73955;DHT22;62306;52.516;13.290;2024-01-07T03:31:08;-1.90;99.90
73955;DHT22;62306;52.516;13.290;2024-01-07T03:33:37;-2.00;99.90
73955;DHT22;62306;52.516;13.290;2024-01-07T03:36:07;-1.90;99.90
73955;DHT22;62306;52.516;13.290;2024-01-07T03:38:34;-2.00;99.90
73955;DHT22;62306;52.516;13.290;2024-01-07T03:41:02;-3.20;99.90
73955;DHT22;62306;52.516;13.290;2024-01-07T03:43:29;-2.00;99.90
73955;DHT22;62306;52.516;13.290;2024-01-07T03:45:56;-2.00;99.90
73955;DHT22;62306;52.516;13.290;2024-01-07T03:48:23;-2.00;99.90
73955;DHT22;62306;52.516;13.290;2024-01-07T03:50:51;-2.10;99.90
73955;DHT22;62306;52.516;13.290;2024-01-07T03:53:18;-2.10;99.90
73955;DHT22;62306;52.516;13.290;2024-01-07T03:55:45;-2.00;99.90
73955;DHT22;62306;52.516;13.290;2024-01-07T03:58:12;-2.10;99.90
73955;DHT22;62306;52.516;13.290;2024-01-07T04:00:39;-2.10;99.90
73955;DHT22;62306;52.516;13.290;2024-01-07T04:03:06;-2.10;99.90
73955;DHT22;62306;52.516;13.290;2024-01-07T04:05:33;-2.20;99.90
73955;DHT22;62306;52.516;13.290;2024-01-07T04:08:01;-2.10;99.90
73955;DHT22;62306;52.516;13.290;2024-01-07T04:10:28;-2.10;99.90
73955;DHT22;62306;52.516;13.290;2024-01-07T04:12:55;-2.20;99.90
73955;DHT22;62306;52.516;13.290;2024-01-07T04:15:24;-1.50;99.90
73955;DHT22;62306;52.516;13.290;2024-01-07T04:17:50;-2.20;99.90
73955;DHT22;62306;52.516;13.290;2024-01-07T04:20:17;-2.20;99.90
73955;DHT22;62306;52.516;13.290;2024-01-07T04:22:44;-2.20;99.90
73955;DHT22;62306;52.516;13.290;2024-01-07T04:25:12;-2.20;99.90
73955;DHT22;62306;52.516;13.290;2024-01-07T04:27:39;-2.20;99.90
73955;DHT22;62306;52.516;13.290;2024-01-07T04:30:06;-2.20;99.90
73955;DHT22;62306;52.516;13.290;2024-01-07T04:32:33;-2.20;99.90
73955;DHT22;62306;52.516;13.290;2024-01-07T04:35:00;-2.20;99.90
73955;DHT22;62306;52.516;13.290;2024-01-07T04:37:27;-2.30;99.90
73955;DHT22;62306;52.516;13.290;2024-01-07T04:39:54;-2.20;99.90
73955;DHT22;62306;52.516;13.290;2024-01-07T04:42:22;-2.20;99.90
73955;DHT22;62306;52.516;13.290;2024-01-07T04:44:49;-2.20;99.90
73955;DHT22;62306;52.516;13.290;2024-01-07T04:47:26;-2.20;99.90
73955;DHT22;62306;52.516;13.290;2024-01-07T04:49:53;-2.20;99.90
73955;DHT22;62306;52.516;13.290;2024-01-07T04:52:21;-2.20;99.90
73955;DHT22;62306;52.516;13.290;2024-01-07T04:54:48;-2.20;99.90
73955;DHT22;62306;52.516;13.290;2024-01-07T04:57:15;-2.20;99.90
73955;DHT22;62306;52.516;13.290;2024-01-07T04:59:43;-2.20;99.90
73955;DHT22;62306;52.516;13.290;2024-01-07T05:02:10;-2.20;99.90
73955;DHT22;62306;52.516;13.290;2024-01-07T05:04:37;-2.20;99.90
73955;DHT22;62306;52.516;13.290;2024-01-07T05:07:04;-2.20;99.90
73955;DHT22;62306;52.516;13.290;2024-01-07T05:09:32;-2.20;99.90
73955;DHT22;62306;52.516;13.290;2024-01-07T05:11:59;-2.20;99.90
73955;DHT22;62306;52.516;13.290;2024-01-07T05:14:26;-2.10;99.90
73955;DHT22;62306;52.516;13.290;2024-01-07T05:16:55;-2.10;99.90
73955;DHT22;62306;52.516;13.290;2024-01-07T05:19:21;-2.10;99.90
73955;DHT22;62306;52.516;13.290;2024-01-07T05:21:49;-2.00;99.90
73955;DHT22;62306;52.516;13.290;2024-01-07T05:24:16;-2.00;99.90
73955;DHT22;62306;52.516;13.290;2024-01-07T05:26:43;-1.90;99.90
73955;DHT22;62306;52.516;13.290;2024-01-07T05:29:10;-1.90;99.90
73955;DHT22;62306;52.516;13.290;2024-01-07T05:31:38;-1.90;99.90
73955;DHT22;62306;52.516;13.290;2024-01-07T05:34:06;-2.00;99.90
73955;DHT22;62306;52.516;13.290;2024-01-07T05:36:33;-1.90;99.90
73955;DHT22;62306;52.516;13.290;2024-01-07T05:39:00;-1.90;99.90
73955;DHT22;62306;52.516;13.290;2024-01-07T05:41:27;-2.00;99.90
73955;DHT22;62306;52.516;13.290;2024-01-07T05:43:53;-2.00;99.90
73955;DHT22;62306;52.516;13.290;2024-01-07T05:46:20;-1.90;99.90
73955;DHT22;62306;52.516;13.290;2024-01-07T05:48:48;-1.90;99.90
73955;DHT22;62306;52.516;13.290;2024-01-07T05:51:17;-1.90;99.90
73955;DHT22;62306;52.516;13.290;2024-01-07T05:53:44;-1.90;99.90
73955;DHT22;62306;52.516;13.290;2024-01-07T05:56:11;-1.80;99.90
73955;DHT22;62306;52.516;13.290;2024-01-07T05:58:38;-1.80;99.90
73955;DHT22;62306;52.516;13.290;2024-01-07T06:01:06;-1.70;99.90
73955;DHT22;62306;52.516;13.290;2024-01-07T06:03:34;-1.70;99.90
73955;DHT22;62306;52.516;13.290;2024-01-07T06:06:00;-1.70;99.90
73955;DHT22;62306;52.516;13.290;2024-01-07T06:08:29;-1.70;99.90
73955;DHT22;62306;52.516;13.290;2024-01-07T06:10:55;-1.70;99.90
73955;DHT22;62306;52.516;13.290;2024-01-07T06:13:22;-1.70;99.90
73955;DHT22;62306;52.516;13.290;2024-01-07T06:15:49;-1.70;99.90
73955;DHT22;62306;52.516;13.290;2024-01-07T06:18:16;-1.70;99.90
73955;DHT22;62306;52.516;13.290;2024-01-07T06:20:43;-1.70;99.90
73955;DHT22;62306;52.516;13.290;2024-01-07T06:23:10;-1.60;99.90
73955;DHT22;62306;52.516;13.290;2024-01-07T06:25:38;-1.60;99.90
73955;DHT22;62306;52.516;13.290;2024-01-07T06:28:05;-1.60;99.90
73955;DHT22;62306;52.516;13.290;2024-01-07T06:30:32;-1.60;99.90
73955;DHT22;62306;52.516;13.290;2024-01-07T06:33:00;-1.60;99.90
73955;DHT22;62306;52.516;13.290;2024-01-07T06:35:27;-1.60;99.90
73955;DHT22;62306;52.516;13.290;2024-01-07T06:37:54;-1.60;99.90
73955;DHT22;62306;52.516;13.290;2024-01-07T06:40:21;-1.60;99.90
73955;DHT22;62306;52.516;13.290;2024-01-07T06:42:49;-1.70;99.90
73955;DHT22;62306;52.516;13.290;2024-01-07T06:45:16;-1.70;99.90
73955;DHT22;62306;52.516;13.290;2024-01-07T06:47:43;-1.70;99.90
73955;DHT22;62306;52.516;13.290;2024-01-07T06:50:11;-1.70;99.90
73955;DHT22;62306;52.516;13.290;2024-01-07T06:52:38;-1.70;99.90
73955;DHT22;62306;52.516;13.290;2024-01-07T06:55:07;-1.70;99.90
73955;DHT22;62306;52.516;13.290;2024-01-07T06:57:33;-1.70;99.90
73955;DHT22;62306;52.516;13.290;2024-01-07T07:00:02;-1.70;99.90
73955;DHT22;62306;52.516;13.290;2024-01-07T07:02:30;-1.70;99.90
73955;DHT22;62306;52.516;13.290;2024-01-07T07:04:57;-1.70;99.90
73955;DHT22;62306;52.516;13.290;2024-01-07T07:07:23;-1.80;99.90
73955;DHT22;62306;52.516;13.290;2024-01-07T07:09:51;-1.70;99.90
73955;DHT22;62306;52.516;13.290;2024-01-07T07:12:18;-1.70;99.90
73955;DHT22;62306;52.516;13.290;2024-01-07T07:14:45;-1.70;99.90
73955;DHT22;62306;52.516;13.290;2024-01-07T07:17:14;-1.60;99.90
73955;DHT22;62306;52.516;13.290;2024-01-07T07:19:41;-1.70;99.90
73955;DHT22;62306;52.516;13.290;2024-01-07T07:22:08;-1.70;99.90
73955;DHT22;62306;52.516;13.290;2024-01-07T07:24:35;-1.70;99.90
73955;DHT22;62306;52.516;13.290;2024-01-07T07:27:05;-1.60;99.90
73955;DHT22;62306;52.516;13.290;2024-01-07T07:29:32;-1.70;99.90
73955;DHT22;62306;52.516;13.290;2024-01-07T07:31:59;-1.70;99.90
73955;DHT22;62306;52.516;13.290;2024-01-07T07:34:27;-1.70;99.90
73955;DHT22;62306;52.516;13.290;2024-01-07T07:36:54;-1.60;99.90
73955;DHT22;62306;52.516;13.290;2024-01-07T07:39:21;-1.50;99.90
73955;DHT22;62306;52.516;13.290;2024-01-07T07:41:48;-1.50;99.90
73955;DHT22;62306;52.516;13.290;2024-01-07T07:44:14;-1.50;99.90
73955;DHT22;62306;52.516;13.290;2024-01-07T07:46:41;-1.40;99.90
73955;DHT22;62306;52.516;13.290;2024-01-07T07:49:08;-1.40;99.90
73955;DHT22;62306;52.516;13.290;2024-01-07T07:51:38;-1.40;99.90
73955;DHT22;62306;52.516;13.290;2024-01-07T07:54:05;-1.40;99.90
73955;DHT22;62306;52.516;13.290;2024-01-07T07:56:32;-1.30;99.90
73955;DHT22;62306;52.516;13.290;2024-01-07T07:59:01;-1.30;99.90
73955;DHT22;62306;52.516;13.290;2024-01-07T08:01:28;-1.30;99.90
73955;DHT22;62306;52.516;13.290;2024-01-07T08:03:55;-1.20;99.90
73955;DHT22;62306;52.516;13.290;2024-01-07T08:06:22;-1.20;99.90
73955;DHT22;62306;52.516;13.290;2024-01-07T08:08:50;-1.20;99.90
73955;DHT22;62306;52.516;13.290;2024-01-07T08:11:17;-1.10;99.90
73955;DHT22;62306;52.516;13.290;2024-01-07T08:13:43;-1.10;99.90
73955;DHT22;62306;52.516;13.290;2024-01-07T08:16:10;-1.10;99.90
73955;DHT22;62306;52.516;13.290;2024-01-07T08:18:37;-1.10;99.90
73955;DHT22;62306;52.516;13.290;2024-01-07T08:21:04;-1.10;99.90
73955;DHT22;62306;52.516;13.290;2024-01-07T08:23:31;-1.10;99.90
73955;DHT22;62306;52.516;13.290;2024-01-07T08:25:59;-1.10;99.90
73955;DHT22;62306;52.516;13.290;2024-01-07T08:28:26;-1.10;99.90
73955;DHT22;62306;52.516;13.290;2024-01-07T08:30:53;-1.10;99.90
73955;DHT22;62306;52.516;13.290;2024-01-07T08:33:21;-1.00;99.90
73955;DHT22;62306;52.516;13.290;2024-01-07T08:35:48;-1.00;99.90
73955;DHT22;62306;52.516;13.290;2024-01-07T08:38:15;-1.00;99.90
73955;DHT22;62306;52.516;13.290;2024-01-07T08:40:41;-1.00;99.90
73955;DHT22;62306;52.516;13.290;2024-01-07T08:43:10;-1.00;99.90
73955;DHT22;62306;52.516;13.290;2024-01-07T08:45:37;-1.00;99.90
73955;DHT22;62306;52.516;13.290;2024-01-07T08:48:04;-0.90;99.90
73955;DHT22;62306;52.516;13.290;2024-01-07T08:50:32;-0.90;99.90
73955;DHT22;62306;52.516;13.290;2024-01-07T08:52:58;-0.90;99.90
73955;DHT22;62306;52.516;13.290;2024-01-07T08:55:25;-0.80;99.90
73955;DHT22;62306;52.516;13.290;2024-01-07T08:57:52;-0.80;99.90
73955;DHT22;62306;52.516;13.290;2024-01-07T09:00:21;-0.70;99.90
73955;DHT22;62306;52.516;13.290;2024-01-07T09:02:51;-0.70;99.90
73955;DHT22;62306;52.516;13.290;2024-01-07T09:05:18;-0.70;99.90
73955;DHT22;62306;52.516;13.290;2024-01-07T09:07:45;-0.70;99.90
73955;DHT22;62306;52.516;13.290;2024-01-07T09:10:11;-0.70;99.90
73955;DHT22;62306;52.516;13.290;2024-01-07T09:12:39;-0.40;99.90
73955;DHT22;62306;52.516;13.290;2024-01-07T09:15:06;-0.60;99.90
73955;DHT22;62306;52.516;13.290;2024-01-07T09:17:36;-0.50;99.90
73955;DHT22;62306;52.516;13.290;2024-01-07T09:20:04;-0.50;99.90
73955;DHT22;62306;52.516;13.290;2024-01-07T09:22:33;-0.50;99.90
73955;DHT22;62306;52.516;13.290;2024-01-07T09:25:00;-0.50;99.90
73955;DHT22;62306;52.516;13.290;2024-01-07T09:27:27;-0.40;99.90
73955;DHT22;62306;52.516;13.290;2024-01-07T09:29:54;-0.40;99.90
73955;DHT22;62306;52.516;13.290;2024-01-07T09:32:20;-0.30;99.90
73955;DHT22;62306;52.516;13.290;2024-01-07T09:34:48;-0.30;99.90
73955;DHT22;62306;52.516;13.290;2024-01-07T09:37:16;-0.30;99.90
73955;DHT22;62306;52.516;13.290;2024-01-07T09:39:43;-0.40;99.90
73955;DHT22;62306;52.516;13.290;2024-01-07T09:42:13;-0.40;99.90
73955;DHT22;62306;52.516;13.290;2024-01-07T09:44:40;-0.50;99.90
73955;DHT22;62306;52.516;13.290;2024-01-07T09:47:10;-0.50;99.90
73955;DHT22;62306;52.516;13.290;2024-01-07T09:49:37;-0.40;99.90
73955;DHT22;62306;52.516;13.290;2024-01-07T09:52:06;-0.40;99.90
73955;DHT22;62306;52.516;13.290;2024-01-07T09:54:35;-0.40;99.90
73955;DHT22;62306;52.516;13.290;2024-01-07T09:57:03;-0.40;99.90
73955;DHT22;62306;52.516;13.290;2024-01-07T09:59:32;-0.30;99.90
73955;DHT22;62306;52.516;13.290;2024-01-07T10:01:59;-0.40;99.90
73955;DHT22;62306;52.516;13.290;2024-01-07T10:04:27;-0.40;99.90
73955;DHT22;62306;52.516;13.290;2024-01-07T10:06:54;-0.50;99.90
73955;DHT22;62306;52.516;13.290;2024-01-07T10:09:24;-0.40;99.90
73955;DHT22;62306;52.516;13.290;2024-01-07T10:11:52;-0.30;99.90
73955;DHT22;62306;52.516;13.290;2024-01-07T10:14:19;-0.40;99.90
73955;DHT22;62306;52.516;13.290;2024-01-07T10:16:48;-0.40;99.90
73955;DHT22;62306;52.516;13.290;2024-01-07T10:19:19;-0.40;99.90
73955;DHT22;62306;52.516;13.290;2024-01-07T10:21:47;-0.40;99.90
73955;DHT22;62306;52.516;13.290;2024-01-07T10:24:26;-0.40;99.90
73955;DHT22;62306;52.516;13.290;2024-01-07T10:26:53;-0.40;99.90
73955;DHT22;62306;52.516;13.290;2024-01-07T10:29:19;-0.30;99.90
73955;DHT22;62306;52.516;13.290;2024-01-07T10:31:47;-0.30;99.90
73955;DHT22;62306;52.516;13.290;2024-01-07T10:34:14;-0.30;99.90
73955;DHT22;62306;52.516;13.290;2024-01-07T10:36:41;-0.20;99.90
73955;DHT22;62306;52.516;13.290;2024-01-07T10:39:08;-0.20;99.90
73955;DHT22;62306;52.516;13.290;2024-01-07T10:41:37;-0.20;99.90
73955;DHT22;62306;52.516;13.290;2024-01-07T10:44:04;-0.10;99.90
73955;DHT22;62306;52.516;13.290;2024-01-07T10:46:32;-0.10;99.90
73955;DHT22;62306;52.516;13.290;2024-01-07T10:49:03;0.00;99.90
73955;DHT22;62306;52.516;13.290;2024-01-07T10:51:33;0.10;99.90
73955;DHT22;62306;52.516;13.290;2024-01-07T10:54:00;0.20;99.90
73955;DHT22;62306;52.516;13.290;2024-01-07T10:56:46;0.20;99.90
73955;DHT22;62306;52.516;13.290;2024-01-07T10:59:15;0.20;99.90
73955;DHT22;62306;52.516;13.290;2024-01-07T11:01:42;0.20;99.90
73955;DHT22;62306;52.516;13.290;2024-01-07T11:04:14;0.20;99.90
73955;DHT22;62306;52.516;13.290;2024-01-07T11:06:49;0.20;99.90
73955;DHT22;62306;52.516;13.290;2024-01-07T11:09:21;0.30;99.90
73955;DHT22;62306;52.516;13.290;2024-01-07T11:11:51;0.30;99.90
73955;DHT22;62306;52.516;13.290;2024-01-07T11:14:35;0.30;99.90
73955;DHT22;62306;52.516;13.290;2024-01-07T11:17:02;0.30;99.90
73955;DHT22;62306;52.516;13.290;2024-01-07T11:19:29;0.30;99.90
73955;DHT22;62306;52.516;13.290;2024-01-07T11:22:23;0.30;99.90
73955;DHT22;62306;52.516;13.290;2024-01-07T11:24:53;0.30;99.90
73955;DHT22;62306;52.516;13.290;2024-01-07T11:27:23;0.30;99.90
73955;DHT22;62306;52.516;13.290;2024-01-07T11:29:54;0.30;99.90
73955;DHT22;62306;52.516;13.290;2024-01-07T11:32:22;0.30;99.90
73955;DHT22;62306;52.516;13.290;2024-01-07T11:34:51;0.30;99.90
73955;DHT22;62306;52.516;13.290;2024-01-07T11:37:19;0.20;99.90
73955;DHT22;62306;52.516;13.290;2024-01-07T11:39:48;0.30;99.90
73955;DHT22;62306;52.516;13.290;2024-01-07T11:42:16;0.30;99.90
73955;DHT22;62306;52.516;13.290;2024-01-07T11:44:47;0.30;99.90
73955;DHT22;62306;52.516;13.290;2024-01-07T11:47:15;0.30;99.90
73955;DHT22;62306;52.516;13.290;2024-01-07T11:49:42;0.30;99.90
73955;DHT22;62306;52.516;13.290;2024-01-07T11:52:10;0.30;99.90
73955;DHT22;62306;52.516;13.290;2024-01-07T11:54:37;0.30;99.90
73955;DHT22;62306;52.516;13.290;2024-01-07T11:57:04;0.30;99.90
73955;DHT22;62306;52.516;13.290;2024-01-07T11:59:31;0.30;99.90
73955;DHT22;62306;52.516;13.290;2024-01-07T12:02:01;0.30;99.90
73955;DHT22;62306;52.516;13.290;2024-01-07T12:04:29;0.40;99.90
73955;DHT22;62306;52.516;13.290;2024-01-07T12:06:57;0.40;99.90
73955;DHT22;62306;52.516;13.290;2024-01-07T12:09:24;0.40;99.90
73955;DHT22;62306;52.516;13.290;2024-01-07T12:11:51;0.40;99.90
73955;DHT22;62306;52.516;13.290;2024-01-07T12:14:18;0.50;99.90
73955;DHT22;62306;52.516;13.290;2024-01-07T12:16:45;0.50;99.90
73955;DHT22;62306;52.516;13.290;2024-01-07T12:19:14;0.50;99.90
73955;DHT22;62306;52.516;13.290;2024-01-07T12:21:40;0.60;99.90
73955;DHT22;62306;52.516;13.290;2024-01-07T12:24:07;0.50;99.90
73955;DHT22;62306;52.516;13.290;2024-01-07T12:26:34;0.50;99.90
73955;DHT22;62306;52.516;13.290;2024-01-07T12:29:03;0.60;99.90
73955;DHT22;62306;52.516;13.290;2024-01-07T12:31:31;0.50;99.90
73955;DHT22;62306;52.516;13.290;2024-01-07T12:33:58;0.60;99.90
73955;DHT22;62306;52.516;13.290;2024-01-07T12:36:26;0.60;99.90
73955;DHT22;62306;52.516;13.290;2024-01-07T12:38:56;0.60;99.90
73955;DHT22;62306;52.516;13.290;2024-01-07T12:41:23;0.60;99.90
73955;DHT22;62306;52.516;13.290;2024-01-07T12:43:51;0.60;99.90
73955;DHT22;62306;52.516;13.290;2024-01-07T12:46:17;0.60;99.90
73955;DHT22;62306;52.516;13.290;2024-01-07T12:48:44;0.60;99.90
73955;DHT22;62306;52.516;13.290;2024-01-07T12:51:11;0.60;99.90
73955;DHT22;62306;52.516;13.290;2024-01-07T12:53:40;0.60;99.90
73955;DHT22;62306;52.516;13.290;2024-01-07T12:56:07;0.60;99.90
73955;DHT22;62306;52.516;13.290;2024-01-07T12:58:33;0.60;99.90
73955;DHT22;62306;52.516;13.290;2024-01-07T13:01:00;0.60;99.90
73955;DHT22;62306;52.516;13.290;2024-01-07T13:03:27;0.60;99.90
73955;DHT22;62306;52.516;13.290;2024-01-07T13:05:54;0.60;99.90
73955;DHT22;62306;52.516;13.290;2024-01-07T13:08:21;0.60;99.90
73955;DHT22;62306;52.516;13.290;2024-01-07T13:10:52;0.50;99.90
73955;DHT22;62306;52.516;13.290;2024-01-07T13:13:20;0.60;99.90
73955;DHT22;62306;52.516;13.290;2024-01-07T13:15:47;0.60;99.90
73955;DHT22;62306;52.516;13.290;2024-01-07T13:18:16;1.10;99.90
73955;DHT22;62306;52.516;13.290;2024-01-07T13:20:43;0.60;99.90
73955;DHT22;62306;52.516;13.290;2024-01-07T13:23:09;0.70;99.90
73955;DHT22;62306;52.516;13.290;2024-01-07T13:25:36;1.60;99.90
73955;DHT22;62306;52.516;13.290;2024-01-07T13:28:05;0.70;99.90
73955;DHT22;62306;52.516;13.290;2024-01-07T13:30:36;0.70;99.90
73955;DHT22;62306;52.516;13.290;2024-01-07T13:33:03;0.80;99.90
73955;DHT22;62306;52.516;13.290;2024-01-07T13:35:30;0.70;99.90
73955;DHT22;62306;52.516;13.290;2024-01-07T13:37:57;0.70;99.90
73955;DHT22;62306;52.516;13.290;2024-01-07T13:40:24;0.70;99.90
73955;DHT22;62306;52.516;13.290;2024-01-07T13:42:51;0.70;99.90
73955;DHT22;62306;52.516;13.290;2024-01-07T13:45:20;0.70;99.90
73955;DHT22;62306;52.516;13.290;2024-01-07T13:47:48;0.70;99.90
73955;DHT22;62306;52.516;13.290;2024-01-07T13:50:15;0.60;99.90
73955;DHT22;62306;52.516;13.290;2024-01-07T13:52:43;0.50;99.90
73955;DHT22;62306;52.516;13.290;2024-01-07T13:55:10;0.60;99.90
73955;DHT22;62306;52.516;13.290;2024-01-07T13:57:37;0.50;99.90
73955;DHT22;62306;52.516;13.290;2024-01-07T14:00:05;0.40;99.90
73955;DHT22;62306;52.516;13.290;2024-01-07T14:02:37;0.40;99.90
73955;DHT22;62306;52.516;13.290;2024-01-07T14:05:05;0.40;99.90
73955;DHT22;62306;52.516;13.290;2024-01-07T14:07:34;0.40;99.90
73955;DHT22;62306;52.516;13.290;2024-01-07T14:10:01;0.50;99.90
73955;DHT22;62306;52.516;13.290;2024-01-07T14:12:30;0.50;99.90
73955;DHT22;62306;52.516;13.290;2024-01-07T14:14:57;0.50;99.90
73955;DHT22;62306;52.516;13.290;2024-01-07T14:17:24;0.50;99.90
73955;DHT22;62306;52.516;13.290;2024-01-07T14:19:52;0.50;99.90
73955;DHT22;62306;52.516;13.290;2024-01-07T14:22:19;0.50;99.90
73955;DHT22;62306;52.516;13.290;2024-01-07T14:24:46;0.40;99.90
73955;DHT22;62306;52.516;13.290;2024-01-07T14:27:14;0.40;99.90
73955;DHT22;62306;52.516;13.290;2024-01-07T14:29:41;0.40;99.90
73955;DHT22;62306;52.516;13.290;2024-01-07T14:32:08;0.40;99.90
73955;DHT22;62306;52.516;13.290;2024-01-07T14:34:38;0.50;99.90
73955;DHT22;62306;52.516;13.290;2024-01-07T14:37:08;0.50;99.90
73955;DHT22;62306;52.516;13.290;2024-01-07T14:39:35;0.50;99.90
73955;DHT22;62306;52.516;13.290;2024-01-07T14:42:02;0.40;99.90
73955;DHT22;62306;52.516;13.290;2024-01-07T14:44:29;0.40;99.90
73955;DHT22;62306;52.516;13.290;2024-01-07T14:46:56;0.50;99.90
73955;DHT22;62306;52.516;13.290;2024-01-07T14:49:23;0.50;99.90
73955;DHT22;62306;52.516;13.290;2024-01-07T14:51:50;0.50;99.90
73955;DHT22;62306;52.516;13.290;2024-01-07T14:54:18;0.50;99.90
73955;DHT22;62306;52.516;13.290;2024-01-07T14:56:45;0.50;99.90
73955;DHT22;62306;52.516;13.290;2024-01-07T14:59:12;0.50;99.90
73955;DHT22;62306;52.516;13.290;2024-01-07T15:01:39;0.50;99.90
73955;DHT22;62306;52.516;13.290;2024-01-07T15:04:09;0.50;99.90
73955;DHT22;62306;52.516;13.290;2024-01-07T15:06:40;0.50;99.90
73955;DHT22;62306;52.516;13.290;2024-01-07T15:09:07;0.50;99.90
73955;DHT22;62306;52.516;13.290;2024-01-07T15:11:36;0.40;99.90
73955;DHT22;62306;52.516;13.290;2024-01-07T15:14:04;0.50;99.90
73955;DHT22;62306;52.516;13.290;2024-01-07T15:16:34;0.50;99.90
73955;DHT22;62306;52.516;13.290;2024-01-07T15:19:01;0.50;99.90
73955;DHT22;62306;52.516;13.290;2024-01-07T15:21:28;0.50;99.90
73955;DHT22;62306;52.516;13.290;2024-01-07T15:23:55;0.50;99.90